Time;durP1;ratioP1;P1;durP2;ratioP2;P2;SDS_P1;SDS_P2;PMS_P1;PMS_P2;Temp;Humidity;BMP_temperature;BMP_pressure;BME280_temperature;BME280_humidity;BME280_pressure;Samples;Min_cycle;Max_cycle;Signal;HPM_P1;HPM_P2
2023/03/12 00:01:13;;;;;;;9.93;6.07;;;;;;;6.84;100.00;99856.13;5044704;28;20356;-48
2023/03/12 00:03:39;;;;;;;11.35;7.00;;;;;;;6.87;100.00;99861.06;5050823;28;20028;-50
2023/03/12 00:06:05;;;;;;;11.10;5.93;;;;;;;6.89;100.00;99859.03;5046464;28;20033;-50
2023/03/12 00:08:30;;;;;;;11.02;5.88;;;;;;;6.87;100.00;99861.06;5053453;28;20029;-48
2023/03/12 00:10:55;;;;;;;11.57;6.53;;;;;;;6.88;100.00;99862.69;5046237;28;20132;-54
2023/03/12 00:13:21;;;;;;;11.45;6.32;;;;;;;6.93;100.00;99855.88;5047084;28;20458;-50
2023/03/12 00:15:46;;;;;;;14.07;6.82;;;;;;;6.89;100.00;99848.50;5040926;28;20057;-53
2023/03/12 00:18:11;;;;;;;11.45;5.97;;;;;;;6.91;100.00;99857.88;5045046;28;20132;-52
2023/03/12 00:20:37;;;;;;;9.10;5.22;;;;;;;6.93;100.00;99847.97;5045239;28;20061;-52
2023/03/12 00:23:02;;;;;;;11.00;6.43;;;;;;;7.03;100.00;99852.97;5045633;28;20032;-49
2023/03/12 00:25:27;;;;;;;9.00;5.38;;;;;;;6.98;100.00;99850.06;5047314;28;20036;-50
2023/03/12 00:27:53;;;;;;;10.90;5.78;;;;;;;7.09;100.00;99851.41;5044826;28;20099;-50
2023/03/12 00:30:18;;;;;;;35.38;14.55;;;;;;;7.15;100.00;99850.66;5047549;28;20259;-50
2023/03/12 00:32:43;;;;;;;18.80;8.02;;;;;;;7.10;100.00;99845.97;5053090;28;20132;-51
2023/03/12 00:35:09;;;;;;;15.18;7.32;;;;;;;7.12;100.00;99843.94;5039016;28;20494;-50
2023/03/12 00:37:36;;;;;;;13.38;7.82;;;;;;;7.20;100.00;99843.03;5043287;28;20028;-52
2023/03/12 00:40:04;;;;;;;14.85;7.63;;;;;;;7.28;100.00;99834.19;5049292;28;20114;-52
2023/03/12 00:42:29;;;;;;;12.43;6.22;;;;;;;7.22;100.00;99833.91;5047191;28;20031;-49
2023/03/12 00:44:54;;;;;;;12.77;7.07;;;;;;;7.24;100.00;99843.50;5049440;28;20105;-51
2023/03/12 00:47:20;;;;;;;12.07;5.82;;;;;;;7.24;100.00;99843.50;5051833;28;20064;-49
2023/03/12 00:49:45;;;;;;;9.95;5.60;;;;;;;7.25;100.00;99848.56;5047659;28;20107;-51
2023/03/12 00:52:10;;;;;;;14.25;8.35;;;;;;;7.27;100.00;99835.19;5056398;28;20128;-50
2023/03/12 00:54:36;;;;;;;11.68;6.28;;;;;;;7.28;100.00;99842.09;5050428;28;20064;-49
2023/03/12 00:57:01;;;;;;;10.07;6.35;;;;;;;7.29;100.00;99844.56;5047582;28;20106;-48
2023/03/12 00:59:27;;;;;;;11.13;5.82;;;;;;;7.33;100.00;99845.00;5056007;28;20025;-49
2023/03/12 01:01:52;;;;;;;11.93;6.00;;;;;;;7.39;100.00;99841.63;5053372;28;20029;-54
2023/03/12 01:04:17;;;;;;;11.98;6.55;;;;;;;7.44;100.00;99839.25;5056653;28;20090;-52
2023/03/12 01:06:43;;;;;;;12.13;6.72;;;;;;;7.47;100.00;99841.53;5051461;28;20162;-53
2023/03/12 01:09:08;;;;;;;11.50;5.80;;;;;;;7.58;100.00;99846.28;5052535;28;20028;-53
2023/03/12 01:11:34;;;;;;;7.47;5.45;;;;;;;7.60;100.00;99840.84;5052164;28;20528;-51
2023/03/12 01:14:01;;;;;;;11.13;6.63;;;;;;;7.67;100.00;99836.47;5059204;28;20596;-50
2023/03/12 01:16:29;;;;;;;13.55;5.43;;;;;;;7.72;100.00;99841.16;5056584;28;20524;-51
2023/03/12 01:18:55;;;;;;;9.60;5.38;;;;;;;7.81;100.00;99840.03;5047860;28;20056;-52
2023/03/12 01:21:20;;;;;;;8.23;4.55;;;;;;;7.85;100.00;99843.94;5045725;28;20116;-48
2023/03/12 01:23:45;;;;;;;8.10;5.53;;;;;;;7.89;100.00;99842.53;5055280;28;20167;-52
2023/03/12 01:26:11;;;;;;;10.18;5.00;;;;;;;7.88;100.00;99838.28;5062029;28;20111;-52
2023/03/12 01:28:36;;;;;;;9.68;5.20;;;;;;;7.83;100.00;99830.94;5051744;28;20040;-50
2023/03/12 01:31:09;;;;;;;6.38;3.58;;;;;;;7.94;100.00;99826.97;5057512;28;20029;-53
2023/03/12 01:33:35;;;;;;;8.18;4.20;;;;;;;8.05;100.00;99830.91;5058125;28;20032;-51
2023/03/12 01:36:00;;;;;;;11.75;5.85;;;;;;;8.05;100.00;99833.53;5057403;28;20394;-53
2023/03/12 01:38:25;;;;;;;8.30;4.38;;;;;;;8.08;100.00;99830.53;5048027;28;20033;-53
2023/03/12 01:40:51;;;;;;;7.25;3.55;;;;;;;8.08;100.00;99826.06;5061818;28;20032;-50
2023/03/12 01:43:32;;;;;;;7.90;3.25;;;;;;;8.12;100.00;99837.06;5053689;28;20029;-50
2023/03/12 01:46:04;;;;;;;;;;;;;;;8.24;100.00;99842.66;5054323;28;20079;-52
2023/03/12 01:48:32;;;;;;;10.57;3.58;;;;;;;8.27;100.00;99844.91;5050030;28;19967;-51
2023/03/12 01:50:59;;;;;;;6.72;4.18;;;;;;;8.23;100.00;99827.81;5046092;28;20481;-51
2023/03/12 01:53:25;;;;;;;14.35;5.03;;;;;;;8.23;100.00;99847.09;5046325;28;20029;-48
2023/03/12 01:55:51;;;;;;;6.25;3.55;;;;;;;8.28;100.00;99846.53;5049259;28;20791;-48
2023/03/12 01:58:17;;;;;;;5.55;2.30;;;;;;;8.35;100.00;99841.31;5058295;28;20029;-52
2023/03/12 02:00:43;;;;;;;4.80;1.88;;;;;;;8.42;100.00;99840.38;5056381;28;20036;-54
2023/03/12 02:03:09;;;;;;;6.32;3.97;;;;;;;8.48;100.00;99834.31;5043257;28;20032;-50
2023/03/12 02:05:46;;;;;;;12.85;2.70;;;;;;;8.21;100.00;99837.72;5057980;28;20128;-48
2023/03/12 02:08:13;;;;;;;5.20;2.30;;;;;;;8.26;100.00;99830.88;5056661;28;20491;-55
2023/03/12 02:10:38;;;;;;;5.35;2.33;;;;;;;8.21;100.00;99835.09;5055097;28;20036;-50
2023/03/12 02:13:04;;;;;;;7.82;3.78;;;;;;;8.24;100.00;99840.00;5053351;28;20037;-50
2023/03/12 02:15:31;;;;;;;8.85;2.28;;;;;;;8.21;100.00;99835.09;5054114;28;20087;-49
2023/03/12 02:17:57;;;;;;;9.95;4.15;;;;;;;8.29;100.00;99848.19;5052473;28;20090;-51
2023/03/12 02:20:38;;;;;;;3.70;1.98;;;;;;;8.61;100.00;99851.28;5056855;28;20462;-49
2023/03/12 02:23:20;;;;;;;7.50;2.85;;;;;;;8.67;100.00;99842.56;5049410;28;20021;-51
2023/03/12 02:25:48;;;;;;;11.27;2.55;;;;;;;8.83;100.00;99846.72;5045391;28;20267;-51
2023/03/12 02:28:17;;;;;;;4.78;1.55;;;;;;;8.98;100.00;99842.13;5043391;28;20136;-53
2023/03/12 02:30:46;;;;;;;10.77;1.65;;;;;;;9.03;100.00;99850.28;5051611;28;20028;-50
2023/03/12 02:33:14;;;;;;;10.02;1.98;;;;;;;9.03;100.00;99846.81;5052848;28;20440;-51
2023/03/12 02:35:39;;;;;;;8.38;3.80;;;;;;;9.07;100.00;99826.94;5048373;28;20485;-51
2023/03/12 02:38:42;;;;;;;11.75;3.13;;;;;;;9.04;100.00;99825.50;5051110;28;20036;-52
2023/03/12 02:41:16;;;;;;;5.50;2.03;;;;;;;9.02;100.00;99827.50;5048040;28;20382;-49
2023/03/12 02:43:44;;;;;;;9.88;2.42;;;;;;;9.10;100.00;99821.22;5044653;28;20032;-52
2023/03/12 02:46:11;;;;;;;8.25;2.60;;;;;;;9.07;100.00;99825.09;5048847;28;20305;-50
2023/03/12 02:48:36;;;;;;;8.70;1.77;;;;;;;9.05;100.00;99826.31;5055106;28;20036;-52
2023/03/12 02:51:02;;;;;;;10.50;2.17;;;;;;;8.98;100.00;99838.66;5054102;28;20426;-50
2023/03/12 02:53:28;;;;;;;8.32;1.95;;;;;;;8.85;100.00;99842.88;5049485;28;20024;-53
2023/03/12 02:55:54;;;;;;;8.35;2.75;;;;;;;8.89;100.00;99841.47;5053129;28;20037;-50
2023/03/12 02:58:20;;;;;;;13.27;2.17;;;;;;;8.93;100.00;99849.81;5059088;28;20039;-47
2023/03/12 03:00:45;;;;;;;9.48;2.65;;;;;;;9.00;100.00;99852.50;5048266;28;20036;-50
2023/03/12 03:03:11;;;;;;;6.97;1.70;;;;;;;9.05;100.00;99835.03;5046701;28;20062;-51
2023/03/12 03:05:36;;;;;;;9.93;2.47;;;;;;;9.01;100.00;99833.81;5053048;28;20028;-53
2023/03/12 03:08:02;;;;;;;8.05;1.85;;;;;;;9.03;100.00;99830.97;5052102;28;20158;-51
2023/03/12 03:10:28;;;;;;;9.63;2.00;;;;;;;9.02;100.00;99843.38;5044555;28;20041;-51
2023/03/12 03:12:53;;;;;;;14.65;2.33;;;;;;;9.02;100.00;99842.56;5039911;28;20060;-53
2023/03/12 03:15:18;;;;;;;11.07;2.00;;;;;;;9.04;100.00;99848.47;5043725;28;20028;-48
2023/03/12 03:17:44;;;;;;;11.00;3.72;;;;;;;9.08;100.00;99836.47;5045762;28;20049;-52
2023/03/12 03:20:10;;;;;;;14.98;1.80;;;;;;;9.12;100.00;99832.44;5053764;28;20025;-52
2023/03/12 03:22:36;;;;;;;12.23;1.23;;;;;;;9.11;100.00;99842.22;5054820;28;20081;-49
2023/03/12 03:25:02;;;;;;;13.35;1.77;;;;;;;9.11;100.00;99839.56;5047332;28;20040;-50
2023/03/12 03:27:27;;;;;;;22.08;4.05;;;;;;;9.12;100.00;99841.19;5052712;28;20062;-52
2023/03/12 03:29:53;;;;;;;15.65;4.65;;;;;;;9.15;100.00;99847.91;5046721;28;20127;-50
2023/03/12 03:32:18;;;;;;;11.93;3.15;;;;;;;9.10;100.00;99860.91;5052785;28;20385;-52
2023/03/12 03:34:44;;;;;;;18.58;2.22;;;;;;;9.06;100.00;99860.50;5048986;28;20115;-53
2023/03/12 03:37:09;;;;;;;7.03;1.80;;;;;;;9.06;100.00;99875.53;5046241;28;20044;-49
2023/03/12 03:39:35;;;;;;;12.93;2.50;;;;;;;9.06;100.00;99879.00;5049401;28;20398;-47
2023/03/12 03:42:00;;;;;;;13.23;3.33;;;;;;;9.08;100.00;99898.13;5048698;28;20497;-51
2023/03/12 03:44:26;;;;;;;18.52;4.75;;;;;;;9.10;100.00;99893.44;5047751;28;20035;-50
2023/03/12 03:46:52;;;;;;;10.88;1.90;;;;;;;9.13;100.00;99893.06;5039186;28;20025;-49
2023/03/12 03:49:17;;;;;;;20.00;4.63;;;;;;;9.12;100.00;99903.84;5054767;28;20076;-49
2023/03/12 03:51:43;;;;;;;27.30;4.32;;;;;;;9.05;100.00;99903.78;5047588;28;20071;-49
2023/03/12 03:54:09;;;;;;;23.45;4.38;;;;;;;9.00;100.00;99902.75;5052374;28;20367;-49
2023/03/12 03:56:34;;;;;;;21.15;2.60;;;;;;;9.03;100.00;99916.41;5047108;28;20032;-50
2023/03/12 03:59:00;;;;;;;14.88;3.75;;;;;;;9.09;100.00;99920.94;5049779;28;20430;-50
2023/03/12 04:01:26;;;;;;;12.30;2.67;;;;;;;9.07;100.00;99920.28;5050916;28;20112;-50
2023/03/12 04:03:52;;;;;;;14.52;3.40;;;;;;;8.97;100.00;99921.66;5052523;28;20024;-50
2023/03/12 04:06:17;;;;;;;16.98;4.43;;;;;;;9.03;100.00;99918.22;5053212;28;20103;-54
2023/03/12 04:08:43;;;;;;;24.98;3.20;;;;;;;8.88;100.00;99913.03;5045657;28;20033;-52
2023/03/12 04:11:11;;;;;;;16.73;3.45;;;;;;;8.82;100.00;99924.41;5046480;28;20041;-54
2023/03/12 04:13:37;;;;;;;18.20;3.40;;;;;;;8.70;100.00;99921.50;5046212;28;20084;-50
2023/03/12 04:16:03;;;;;;;12.23;4.50;;;;;;;8.68;100.00;99928.78;5048455;28;20029;-50
2023/03/12 04:18:28;;;;;;;17.38;3.97;;;;;;;8.57;100.00;99931.94;5058719;28;20049;-49
2023/03/12 04:20:54;;;;;;;23.30;5.15;;;;;;;8.40;100.00;99921.66;5053423;28;20025;-48
2023/03/12 04:23:19;;;;;;;17.58;2.97;;;;;;;8.46;100.00;99926.16;5061955;28;20066;-49
2023/03/12 04:25:44;;;;;;;23.15;4.35;;;;;;;8.58;100.00;99934.41;5042571;28;20476;-51
2023/03/12 04:28:10;;;;;;;19.95;4.53;;;;;;;8.77;100.00;99938.19;5055598;28;20473;-53
2023/03/12 04:30:37;;;;;;;15.85;4.22;;;;;;;8.90;100.00;99943.56;5051562;28;20035;-53
2023/03/12 04:33:03;;;;;;;22.25;4.97;;;;;;;9.09;100.00;99963.25;5046383;28;20148;-51
2023/03/12 04:35:28;;;;;;;18.13;4.20;;;;;;;9.20;100.00;99956.59;5048687;28;20025;-50
2023/03/12 04:37:54;;;;;;;24.40;5.53;;;;;;;9.22;100.00;99953.75;5050397;28;20417;-48
2023/03/12 04:40:19;;;;;;;33.80;5.85;;;;;;;9.14;100.00;99960.03;5053511;28;20021;-50
2023/03/12 04:42:45;;;;;;;16.58;4.35;;;;;;;9.29;100.00;99968.66;5044213;28;20032;-53
2023/03/12 04:45:10;;;;;;;18.63;3.50;;;;;;;9.31;100.00;99961.31;5041144;28;20086;-50
2023/03/12 04:47:36;;;;;;;20.60;7.05;;;;;;;9.29;100.00;99978.41;5052298;28;20021;-49
2023/03/12 04:50:01;;;;;;;35.25;8.68;;;;;;;9.38;100.00;99988.63;5052615;28;20044;-50
2023/03/12 04:52:27;;;;;;;13.55;3.75;;;;;;;9.51;100.00;99982.59;5050052;28;20502;-52
2023/03/12 04:54:55;;;;;;;33.50;6.95;;;;;;;9.62;100.00;99978.56;5046851;28;20045;-50
2023/03/12 04:57:20;;;;;;;36.60;6.43;;;;;;;9.70;100.00;99985.53;5053821;28;20496;-52
2023/03/12 04:59:46;;;;;;;29.38;6.68;;;;;;;9.79;100.00;99985.16;5057460;28;20029;-53
2023/03/12 05:02:11;;;;;;;24.92;6.78;;;;;;;9.97;100.00;99991.75;5051066;28;20033;-52
2023/03/12 05:04:37;;;;;;;29.92;5.93;;;;;;;9.94;100.00;99989.47;5046847;28;20540;-53
2023/03/12 05:07:02;;;;;;;15.95;4.20;;;;;;;9.93;100.00;100001.91;5048640;28;20033;-52
2023/03/12 05:09:28;;;;;;;23.08;5.75;;;;;;;10.04;100.00;99995.22;5049269;28;20033;-49
2023/03/12 05:11:53;;;;;;;27.30;5.63;;;;;;;10.03;100.00;100018.25;5054041;28;20417;-49
2023/03/12 05:14:19;;;;;;;27.60;5.35;;;;;;;10.05;100.00;100015.41;5041948;28;20032;-49
2023/03/12 05:16:44;;;;;;;26.25;5.15;;;;;;;10.01;100.00;100007.03;5051419;28;20113;-48
2023/03/12 05:19:10;;;;;;;21.38;4.60;;;;;;;10.00;100.00;99999.31;5055962;28;20383;-48
2023/03/12 05:21:35;;;;;;;35.13;7.40;;;;;;;10.06;100.00;100001.16;5056464;28;20024;-53
2023/03/12 05:24:00;;;;;;;14.40;3.53;;;;;;;10.07;100.00;100025.78;5049699;28;20028;-54
2023/03/12 05:26:32;;;;;;;13.25;2.58;;;;;;;10.08;100.00;100030.09;5049317;28;20405;-50
2023/03/12 05:29:01;;;;;;;32.67;6.20;;;;;;;9.90;100.00;100020.03;5056646;28;20036;-51
2023/03/12 05:31:31;;;;;;;22.35;5.28;;;;;;;9.93;100.00;100012.50;5054532;28;20035;-50
2023/03/12 05:33:58;;;;;;;31.55;8.60;;;;;;;10.01;100.00;100008.88;5058178;28;20043;-54
2023/03/12 05:36:23;;;;;;;40.65;6.50;;;;;;;10.05;100.00;99997.69;5048217;28;20043;-51
2023/03/12 05:38:48;;;;;;;18.58;3.05;;;;;;;10.08;100.00;99993.81;5054657;28;20040;-51
2023/03/12 05:41:25;;;;;;;31.10;7.25;;;;;;;10.03;100.00;99981.16;5046773;28;20405;-52
2023/03/12 05:43:53;;;;;;;25.42;5.70;;;;;;;10.05;100.00;100004.81;5051422;28;20127;-51
2023/03/12 05:46:18;;;;;;;24.25;3.72;;;;;;;10.03;100.00;99993.59;5051054;28;20512;-49
2023/03/12 05:48:44;;;;;;;31.45;6.13;;;;;;;9.93;100.00;99993.97;5059942;28;20024;-52
2023/03/12 05:51:09;;;;;;;26.92;4.53;;;;;;;9.89;100.00;100000.69;5053394;28;20111;-48
2023/03/12 05:53:35;;;;;;;20.95;6.60;;;;;;;9.83;100.00;99991.72;5059015;28;20112;-54
2023/03/12 05:56:05;;;;;;;25.75;3.83;;;;;;;9.81;100.00;99992.94;5052096;28;20444;-51
2023/03/12 05:58:32;;;;;;;42.50;8.43;;;;;;;9.72;100.00;100002.84;5051470;28;20471;-51
2023/03/12 06:00:58;;;;;;;25.58;4.18;;;;;;;9.64;100.00;99996.91;5060052;28;20043;-55
2023/03/12 06:03:23;;;;;;;18.27;4.05;;;;;;;9.63;100.00;99990.81;5054599;28;20584;-48
2023/03/12 06:05:49;;;;;;;23.08;5.60;;;;;;;9.51;100.00;99971.19;5052726;28;20148;-51
2023/03/12 06:08:14;;;;;;;27.23;6.05;;;;;;;9.39;100.00;99979.66;5056846;28;20029;-53
2023/03/12 06:10:40;;;;;;;34.42;6.70;;;;;;;9.26;100.00;99979.59;5058064;28;20370;-52
2023/03/12 06:13:05;;;;;;;30.30;5.07;;;;;;;9.09;100.00;99988.88;5050664;28;20201;-53
2023/03/12 06:15:31;;;;;;;28.88;4.88;;;;;;;9.03;100.00;99993.09;5053537;28;20051;-50
2023/03/12 06:17:56;;;;;;;30.20;6.65;;;;;;;8.92;100.00;99998.91;5053158;28;20041;-53
2023/03/12 06:20:22;;;;;;;18.65;5.57;;;;;;;8.85;100.00;99998.03;5053129;28;20029;-48
2023/03/12 06:22:47;;;;;;;24.30;2.95;;;;;;;8.65;100.00;99984.69;5046211;28;20037;-49
2023/03/12 06:25:12;;;;;;;33.50;6.50;;;;;;;8.63;100.00;99999.91;5050019;28;20032;-49
2023/03/12 06:27:38;;;;;;;25.00;5.30;;;;;;;8.60;100.00;100005.56;5055242;28;20431;-49
2023/03/12 06:30:04;;;;;;;38.55;5.75;;;;;;;8.69;100.00;100015.78;5048854;28;20385;-53
2023/03/12 06:32:30;;;;;;;40.90;7.13;;;;;;;8.70;100.00;100016.63;5056043;28;20241;-51
2023/03/12 06:34:55;;;;;;;16.65;2.92;;;;;;;8.77;100.00;100029.91;5046820;28;20627;-52
2023/03/12 06:37:21;;;;;;;21.58;4.38;;;;;;;8.69;100.00;100050.16;5045144;28;20040;-53
2023/03/12 06:39:46;;;;;;;23.33;4.80;;;;;;;8.64;100.00;100063.13;5044822;28;20033;-50
2023/03/12 06:42:13;;;;;;;14.35;2.03;;;;;;;8.58;100.00;100063.88;5052222;28;20057;-51
2023/03/12 06:44:39;;;;;;;16.25;3.05;;;;;;;8.55;100.00;100055.53;5047723;28;20033;-53
2023/03/12 06:47:04;;;;;;;23.45;3.97;;;;;;;8.46;100.00;100058.25;5048506;28;20024;-49
2023/03/12 06:49:32;;;;;;;16.33;4.63;;;;;;;8.43;100.00;100058.63;5042369;28;20104;-54
2023/03/12 06:51:57;;;;;;;19.15;4.22;;;;;;;8.35;100.00;100065.84;5046931;28;20056;-51
2023/03/12 06:54:22;;;;;;;20.92;5.88;;;;;;;8.39;100.00;100070.59;5046173;28;20130;-51
2023/03/12 06:56:48;;;;;;;23.02;4.93;;;;;;;8.44;100.00;100065.59;5048269;28;20029;-49
2023/03/12 06:59:13;;;;;;;13.98;2.67;;;;;;;8.48;100.00;100055.44;5046319;28;20041;-54
2023/03/12 07:01:38;;;;;;;11.70;4.47;;;;;;;8.44;100.00;100048.88;5047745;28;20033;-53
2023/03/12 07:04:04;;;;;;;31.52;3.80;;;;;;;8.45;100.00;100051.34;5047634;28;20024;-49
2023/03/12 07:06:29;;;;;;;25.65;5.57;;;;;;;8.58;100.00;100036.66;5048544;28;20033;-49
2023/03/12 07:08:54;;;;;;;22.50;3.83;;;;;;;8.65;100.00;100050.75;5049370;28;20086;-50
2023/03/12 07:11:20;;;;;;;15.77;4.18;;;;;;;8.65;100.00;100061.31;5039527;28;20083;-49
2023/03/12 07:13:45;;;;;;;21.75;4.60;;;;;;;8.61;100.00;100062.69;5044464;28;20033;-51
2023/03/12 07:16:11;;;;;;;20.23;5.00;;;;;;;8.75;100.00;100061.78;5054915;28;20107;-48
2023/03/12 07:18:36;;;;;;;8.82;2.85;;;;;;;8.89;100.00;100060.09;5042239;28;20045;-53
2023/03/12 07:21:03;;;;;;;12.85;3.65;;;;;;;8.95;100.00;100049.56;5042331;28;20636;-51
2023/03/12 07:23:28;;;;;;;21.13;5.93;;;;;;;8.97;100.00;100043.28;5038601;28;20036;-52
2023/03/12 07:25:53;;;;;;;20.65;3.78;;;;;;;8.92;100.00;100049.97;5052016;28;20086;-48
2023/03/12 07:28:20;;;;;;;26.10;3.90;;;;;;;8.95;100.00;100061.97;5050855;28;20111;-50
2023/03/12 07:30:49;;;;;;;10.93;2.33;;;;;;;8.99;100.00;100059.78;5040711;28;20040;-48
2023/03/12 07:33:17;;;;;;;28.05;5.57;;;;;;;8.97;100.00;100061.81;5039689;28;20094;-51
2023/03/12 07:35:42;;;;;;;19.25;4.35;;;;;;;9.04;100.00;100054.75;5044528;28;20033;-48
2023/03/12 07:38:08;;;;;;;19.25;3.05;;;;;;;9.12;100.00;100068.63;5044627;28;20517;-51
2023/03/12 07:40:34;;;;;;;20.45;3.13;;;;;;;9.05;100.00;100056.38;5046665;28;20034;-52
2023/03/12 07:43:00;;;;;;;29.92;7.30;;;;;;;8.99;100.00;100062.44;5044706;28;20059;-52
2023/03/12 07:45:25;;;;;;;22.17;4.43;;;;;;;9.07;100.00;100052.53;5041340;28;20033;-50
2023/03/12 07:47:51;;;;;;;30.67;4.85;;;;;;;9.06;100.00;100058.84;5044455;28;20029;-51
2023/03/12 07:50:17;;;;;;;19.63;3.13;;;;;;;9.19;100.00;100068.72;5051888;28;20324;-50
2023/03/12 07:52:44;;;;;;;28.45;6.28;;;;;;;9.30;100.00;100076.09;5043618;28;20057;-53
2023/03/12 07:55:10;;;;;;;17.10;4.13;;;;;;;9.36;100.00;100074.50;5041994;28;20045;-54
2023/03/12 07:57:36;;;;;;;29.48;6.57;;;;;;;9.34;100.00;100074.69;5042437;28;20102;-49
2023/03/12 08:00:06;;;;;;;25.80;4.90;;;;;;;9.33;100.00;100082.84;5045358;28;20029;-52
2023/03/12 08:02:31;;;;;;;12.75;4.63;;;;;;;9.42;100.00;100075.56;5042736;28;20029;-50
2023/03/12 08:04:57;;;;;;;21.58;3.53;;;;;;;9.49;100.00;100094.97;5045844;28;20043;-51
2023/03/12 08:07:22;;;;;;;30.65;7.00;;;;;;;9.60;100.00;100086.47;5039833;28;20047;-53
2023/03/12 08:09:48;;;;;;;24.45;5.70;;;;;;;9.71;100.00;100090.44;5044298;28;20087;-53
2023/03/12 08:12:14;;;;;;;18.27;3.97;;;;;;;9.76;100.00;100088.00;5046115;28;20037;-50
2023/03/12 08:14:39;;;;;;;26.48;6.50;;;;;;;9.73;100.00;100086.56;5048550;28;20037;-49
2023/03/12 08:17:04;;;;;;;20.30;5.35;;;;;;;9.80;100.00;100071.53;5048246;28;20065;-51
2023/03/12 08:19:30;;;;;;;28.15;4.90;;;;;;;9.90;100.00;100073.81;5043220;28;20115;-49
2023/03/12 08:21:56;;;;;;;25.17;5.18;;;;;;;9.86;100.00;100075.25;5047464;28;20029;-49
2023/03/12 08:24:22;;;;;;;11.73;2.90;;;;;;;9.93;100.00;100083.19;5031594;28;20025;-53
2023/03/12 08:26:48;;;;;;;14.30;2.83;;;;;;;10.03;100.00;100075.72;5038346;28;20036;-53
2023/03/12 08:29:14;;;;;;;20.25;3.10;;;;;;;9.99;100.00;100077.09;5040610;28;20191;-52
2023/03/12 08:31:39;;;;;;;16.70;3.20;;;;;;;10.22;100.00;100074.16;5028115;28;20378;-52
2023/03/12 08:34:04;;;;;;;32.03;5.47;;;;;;;10.42;100.00;100079.56;5033004;28;20021;-51
2023/03/12 08:36:30;;;;;;;23.90;4.10;;;;;;;10.58;100.00;100070.41;5034081;28;20052;-53
2023/03/12 08:38:55;;;;;;;16.42;7.85;;;;;;;10.74;100.00;100077.16;5033389;28;20021;-51
2023/03/12 08:41:20;;;;;;;40.05;4.97;;;;;;;10.87;100.00;100082.50;5038472;28;20029;-51
2023/03/12 08:43:46;;;;;;;31.65;4.82;;;;;;;10.88;100.00;100084.94;5036481;28;20029;-51
2023/03/12 08:46:12;;;;;;;25.70;5.22;;;;;;;10.87;100.00;100088.63;5031088;28;20047;-52
2023/03/12 08:48:38;;;;;;;25.67;2.55;;;;;;;10.92;100.00;100088.03;5032355;28;20158;-50
2023/03/12 08:51:04;;;;;;;18.92;2.30;;;;;;;10.91;100.00;100081.06;5036295;28;20021;-51
2023/03/12 08:53:32;;;;;;;22.20;4.78;;;;;;;10.85;100.00;100073.94;5029549;28;20041;-53
2023/03/12 08:55:57;;;;;;;24.67;3.75;;;;;;;10.85;100.00;100085.34;5040708;28;20390;-49
2023/03/12 08:58:24;;;;;;;22.88;4.15;;;;;;;10.96;100.00;100083.13;5043083;28;20035;-49
2023/03/12 09:00:50;;;;;;;21.15;4.80;;;;;;;11.11;100.00;100086.38;5036133;28;20478;-51
2023/03/12 09:03:16;;;;;;;25.75;5.03;;;;;;;11.08;100.00;100086.81;5036284;28;20465;-51
2023/03/12 09:05:42;;;;;;;17.58;3.53;;;;;;;11.19;100.00;100085.38;5040746;28;20112;-50
2023/03/12 09:08:08;;;;;;;22.20;3.28;;;;;;;11.26;100.00;100087.00;5042281;28;20124;-54
2023/03/12 09:10:34;;;;;;;19.65;2.55;;;;;;;11.24;100.00;100080.28;5044884;28;20033;-48
2023/03/12 09:13:00;;;;;;;21.70;2.33;;;;;;;11.35;100.00;100090.25;5037807;28;20037;-49
2023/03/12 09:15:26;;;;;;;18.52;3.95;;;;;;;11.39;100.00;100074.75;5042347;28;20029;-53
2023/03/12 09:17:52;;;;;;;13.73;3.47;;;;;;;11.37;100.00;100080.25;5043019;28;20071;-50
2023/03/12 09:20:18;;;;;;;26.55;3.55;;;;;;;11.41;100.00;100086.78;5043451;28;20030;-50
2023/03/12 09:22:44;;;;;;;19.90;4.07;;;;;;;11.50;100.00;100088.19;5045954;28;20397;-52
2023/03/12 09:25:10;;;;;;;20.80;4.05;;;;;;;11.64;100.00;100082.84;5043926;28;20035;-52
2023/03/12 09:27:44;;;;;;;20.80;2.30;;;;;;;11.74;100.00;100084.06;5041706;28;20029;-50
2023/03/12 09:30:13;;;;;;;18.00;3.95;;;;;;;11.81;100.00;100080.59;5041174;28;20028;-51
2023/03/12 09:32:39;;;;;;;18.83;4.18;;;;;;;11.68;100.00;100081.44;5041157;28;20032;-48
2023/03/12 09:35:06;;;;;;;17.75;3.33;;;;;;;11.83;100.00;100074.03;5045813;28;20478;-50
2023/03/12 09:37:32;;;;;;;16.02;4.25;;;;;;;11.94;100.00;100080.56;5045476;28;20124;-50
2023/03/12 09:39:57;;;;;;;20.20;3.58;;;;;;;12.02;100.00;100064.38;5037447;28;20178;-54
2023/03/12 09:42:35;;;;;;;10.88;1.92;;;;;;;12.17;100.00;100056.16;5047184;28;20041;-51
2023/03/12 09:45:04;;;;;;;9.20;2.65;;;;;;;12.17;100.00;100056.16;5048554;28;20032;-51
2023/03/12 09:47:32;;;;;;;16.67;3.05;;;;;;;12.25;100.00;100053.25;5042086;28;20021;-49
2023/03/12 09:50:17;;;;;;;17.95;3.08;;;;;;;12.46;100.00;100060.09;5045730;28;20712;-53
2023/03/12 09:53:14;;;;;;;11.32;2.65;;;;;;;12.53;100.00;100060.06;5043803;28;20040;-49
2023/03/12 09:55:46;;;;;;;15.32;2.92;;;;;;;12.52;100.00;100045.97;5038779;28;20114;-52
2023/03/12 09:58:25;;;;;;;21.55;3.72;;;;;;;12.38;100.00;100053.19;5042468;28;20020;-51
2023/03/12 10:00:58;;;;;;;15.80;2.90;;;;;;;12.59;100.00;100044.03;5037607;28;20493;-53
2023/03/12 10:03:45;;;;;;;21.63;5.32;;;;;;;12.78;100.00;100038.84;5040702;28;20028;-50
2023/03/12 10:06:20;;;;;;;15.10;2.92;;;;;;;12.75;100.00;100045.41;5047545;28;20029;-49
2023/03/12 10:09:22;;;;;;;11.00;2.63;;;;;;;12.64;100.00;100032.78;5041578;28;20049;-51
2023/03/12 10:12:09;;;;;;;14.45;2.45;;;;;;;12.57;100.00;100024.03;5042701;28;20402;-49
2023/03/12 10:14:49;;;;;;;12.38;1.55;;;;;;;12.58;100.00;100018.50;5047029;28;20048;-51
2023/03/12 10:17:37;;;;;;;22.90;4.72;;;;;;;12.81;100.00;100019.78;5040150;28;20049;-52
2023/03/12 10:20:24;;;;;;;27.10;3.95;;;;;;;12.94;100.00;100018.84;5051239;28;20093;-52
2023/03/12 10:23:10;;;;;;;15.48;1.75;;;;;;;12.98;100.00;100022.69;5043742;28;20063;-51
2023/03/12 10:26:07;;;;;;;9.75;2.05;;;;;;;13.01;100.00;100009.78;5039075;28;20048;-51
2023/03/12 10:28:43;;;;;;;15.10;4.07;;;;;;;13.05;100.00;100015.47;5054160;28;20504;-50
2023/03/12 10:31:18;;;;;;;8.90;1.85;;;;;;;13.08;100.00;100010.50;5049451;28;20044;-50
2023/03/12 10:33:49;;;;;;;13.32;2.20;;;;;;;13.05;100.00;100015.47;5044368;28;20060;-50
2023/03/12 10:36:18;;;;;;;18.45;2.38;;;;;;;12.97;100.00;100018.41;5042080;28;20063;-50
2023/03/12 10:38:43;;;;;;;16.45;3.17;;;;;;;12.93;100.00;100018.00;5038837;28;20041;-52
2023/03/12 10:41:24;;;;;;;21.48;4.88;;;;;;;12.83;100.00;100017.69;5043891;28;20025;-52
2023/03/12 10:43:49;;;;;;;20.77;3.22;;;;;;;12.71;100.00;100019.44;5050326;28;20516;-49
2023/03/12 10:46:34;;;;;;;10.15;2.13;;;;;;;12.77;100.00;100024.69;5050286;28;20025;-55
2023/03/12 10:49:21;;;;;;;30.77;5.57;;;;;;;12.65;100.00;100018.47;5044871;28;20029;-49
2023/03/12 10:51:57;;;;;;;21.88;3.17;;;;;;;12.54;100.00;100011.97;5053339;28;20051;-52
2023/03/12 10:54:30;;;;;;;10.77;2.78;;;;;;;12.56;100.00;100006.44;5044744;28;20029;-52
2023/03/12 10:56:56;;;;;;;21.23;4.47;;;;;;;12.72;100.00;100008.56;5041836;28;20049;-49
2023/03/12 10:59:26;;;;;;;17.00;2.58;;;;;;;12.81;100.00;99999.28;5045738;28;20059;-56
2023/03/12 11:01:52;;;;;;;28.70;4.00;;;;;;;12.92;100.00;100010.28;5043789;28;20028;-52
2023/03/12 11:04:24;;;;;;;29.77;5.90;;;;;;;12.99;100.00;100005.72;5052926;28;20035;-55
2023/03/12 11:07:11;;;;;;;21.40;3.38;;;;;;;12.99;100.00;100008.38;5048814;28;20084;-52
2023/03/12 11:09:36;;;;;;;19.38;4.03;;;;;;;12.85;100.00;100000.47;5036329;28;20092;-51
2023/03/12 11:12:21;;;;;;;24.80;3.90;;;;;;;12.73;100.00;100001.44;5046081;28;20139;-52
2023/03/12 11:14:46;;;;;;;16.10;4.13;;;;;;;12.77;100.00;100006.06;5047051;28;20021;-54
2023/03/12 11:17:28;;;;;;;16.65;5.07;;;;;;;12.74;100.00;100000.38;5049788;28;20075;-53
2023/03/12 11:19:53;;;;;;;15.90;5.20;;;;;;;12.68;100.00;99999.41;5045878;28;20043;-51
2023/03/12 11:22:31;;;;;;;12.43;3.50;;;;;;;12.72;100.00;99995.25;5048550;28;20037;-51